Time;durP1;ratioP1;P1;durP2;ratioP2;P2;SDS_P1;SDS_P2;PMS_P1;PMS_P2;Temp;Humidity;BMP_temperature;BMP_pressure;BME280_temperature;BME280_humidity;BME280_pressure;Samples;Min_cycle;Max_cycle;Signal;HPM_P1;HPM_P2
2022/12/22 03:30:52;;;;;;;5.38;2.13;;;;;;;16.63;57.75;96109.06;10433911;28;20067;-29
2022/12/22 03:35:52;;;;;;;3.50;2.15;;;;;;;16.56;58.15;96098.16;10442726;28;20503;-33
2022/12/22 03:40:53;;;;;;;3.50;1.70;;;;;;;16.63;58.03;96104.84;10429714;28;20039;-29
2022/12/22 03:51:13;;;;;;;3.67;2.10;;;;;;;16.57;59.42;96130.16;10439375;28;20044;-29
2022/12/22 03:56:14;;;;;;;4.20;1.77;;;;;;;16.56;59.93;96128.47;10436153;28;20033;-29
2022/12/22 04:01:15;;;;;;;6.43;2.13;;;;;;;16.58;59.30;96120.84;10445437;28;20691;-30
2022/12/22 04:06:17;;;;;;;4.90;1.92;;;;;;;16.58;59.14;96116.66;10437031;28;20068;-28
2022/12/22 04:16:36;;;;;;;3.55;2.08;;;;;;;16.58;58.97;96109.09;10441300;28;20089;-29
2022/12/22 04:21:36;;;;;;;5.00;1.53;;;;;;;16.59;58.49;96102.31;10435607;28;20597;-29
2022/12/22 04:26:38;;;;;;;3.53;2.08;;;;;;;16.61;58.43;96115.81;10434733;28;20521;-30
2022/12/22 04:31:38;;;;;;;3.45;1.88;;;;;;;16.60;58.52;96135.19;10439758;28;20024;-29
2022/12/22 04:36:38;;;;;;;2.03;1.40;;;;;;;16.60;58.55;96112.44;10438804;28;20033;-29
2022/12/22 04:41:39;;;;;;;4.20;2.20;;;;;;;16.61;58.83;96124.22;10447880;28;20303;-29
2022/12/22 04:46:39;;;;;;;6.23;1.60;;;;;;;16.61;58.51;96121.69;10447644;28;20043;-28
2022/12/22 04:51:39;;;;;;;4.10;1.80;;;;;;;16.63;58.90;96098.97;10441158;28;20299;-30
2022/12/22 04:56:40;;;;;;;2.63;1.43;;;;;;;16.65;58.65;96113.28;10438237;28;20078;-29
2022/12/22 05:01:40;;;;;;;2.33;1.40;;;;;;;16.62;58.28;96093.06;10454042;28;20036;-29
2022/12/22 05:06:40;;;;;;;3.70;1.60;;;;;;;16.66;58.66;96092.22;10435547;28;20048;-29
2022/12/22 05:11:41;;;;;;;3.60;1.70;;;;;;;16.61;59.81;96093.06;10450807;28;20033;-29
2022/12/22 05:16:41;;;;;;;2.63;1.67;;;;;;;16.63;59.75;96107.38;10449069;28;20032;-29
2022/12/22 05:21:41;;;;;;;3.27;1.70;;;;;;;16.66;59.27;96104.00;10438870;28;20104;-29
2022/12/22 05:26:42;;;;;;;2.47;1.30;;;;;;;16.69;58.47;96114.94;10439814;28;20112;-29
2022/12/22 05:31:42;;;;;;;4.17;1.80;;;;;;;16.69;58.68;96114.94;10443168;28;20062;-29
2022/12/22 05:36:42;;;;;;;3.53;1.53;;;;;;;16.70;58.46;96116.63;10447839;28;20490;-29
2022/12/22 05:41:43;;;;;;;2.40;1.50;;;;;;;16.69;58.58;96127.56;10426460;28;20068;-31
2022/12/22 05:46:43;;;;;;;2.03;1.07;;;;;;;16.68;58.31;96128.44;10407608;28;20044;-30
2022/12/22 05:51:44;;;;;;;3.67;1.37;;;;;;;16.67;58.35;96131.81;10433245;28;20752;-29
2022/12/22 05:56:44;;;;;;;2.70;1.95;;;;;;;16.70;57.88;96138.53;10437698;28;20037;-29
2022/12/22 06:01:45;;;;;;;2.93;1.90;;;;;;;16.67;58.34;96136.84;10450816;28;20044;-29
2022/12/22 06:06:45;;;;;;;4.73;1.63;;;;;;;16.68;58.29;96138.53;10438699;28;20405;-29
2022/12/22 06:11:45;;;;;;;3.80;1.33;;;;;;;16.69;58.07;96149.50;10438994;28;20553;-29
2022/12/22 06:16:46;;;;;;;2.90;1.50;;;;;;;16.67;58.56;96117.47;10444917;28;20072;-29
2022/12/22 06:21:46;;;;;;;2.57;1.63;;;;;;;16.68;58.36;96123.38;10437693;28;20051;-30
2022/12/22 06:26:47;;;;;;;2.97;1.87;;;;;;;16.66;59.19;96126.75;10442227;28;20044;-28
2022/12/22 06:31:47;;;;;;;4.07;1.95;;;;;;;16.64;59.67;96096.44;10439665;28;20465;-29
2022/12/22 06:36:48;;;;;;;5.73;1.83;;;;;;;16.63;59.92;96094.72;10436724;28;20122;-29
2022/12/22 06:47:07;;;;;;;6.82;1.90;;;;;;;16.59;58.67;96087.16;10441725;28;20036;-28
2022/12/22 06:52:08;;;;;;;6.33;2.03;;;;;;;16.64;58.17;96086.34;10446714;28;20489;-29
2022/12/22 06:57:08;;;;;;;4.28;1.60;;;;;;;16.62;58.37;96067.78;10436540;28;20041;-29
2022/12/22 07:02:10;;;;;;;6.20;1.70;;;;;;;16.66;57.90;96073.66;10447251;28;20106;-29
2022/12/22 07:07:10;;;;;;;13.07;4.18;;;;;;;16.65;59.38;96088.00;10434957;28;20029;-28
2022/12/22 07:12:11;;;;;;;11.02;3.60;;;;;;;16.64;59.25;96088.00;10442709;28;20040;-29
2022/12/22 07:17:12;;;;;;;9.15;3.78;;;;;;;16.66;59.55;96094.75;10438645;28;20409;-29
2022/12/22 07:22:12;;;;;;;13.43;3.70;;;;;;;16.67;59.23;96081.25;10440941;28;20044;-28
2022/12/22 07:27:12;;;;;;;13.03;3.43;;;;;;;16.65;59.69;96098.13;10430363;28;20048;-29
2022/12/22 07:32:13;;;;;;;15.20;4.13;;;;;;;16.64;59.78;96101.50;10388681;28;20173;-31
2022/12/22 07:37:13;;;;;;;6.97;2.40;;;;;;;16.65;59.89;96098.13;10396840;28;20021;-30
2022/12/22 07:47:32;;;;;;;12.73;2.55;;;;;;;16.64;60.70;96106.53;10391423;28;20342;-31
2022/12/22 07:52:33;;;;;;;11.07;2.70;;;;;;;16.64;61.13;96129.28;10391256;28;20056;-29
2022/12/22 07:57:34;;;;;;;11.27;2.87;;;;;;;16.65;60.81;96136.03;10397111;28;20079;-29
2022/12/22 08:02:35;;;;;;;10.32;2.45;;;;;;;16.62;59.48;96137.72;10391802;28;20062;-29
2022/12/22 08:07:35;;;;;;;6.22;2.00;;;;;;;16.71;58.53;96163.78;10395845;28;20037;-30
2022/12/22 08:12:36;;;;;;;8.68;2.47;;;;;;;16.73;58.74;96162.94;10386680;28;20071;-29
2022/12/22 08:17:36;;;;;;;7.60;2.58;;;;;;;16.72;59.20;96168.03;10386362;28;20017;-28
2022/12/22 08:22:37;;;;;;;7.43;2.05;;;;;;;16.71;58.59;96173.91;10390778;28;20067;-29
2022/12/22 08:27:44;;;;;;;7.97;2.30;;;;;;;16.73;58.63;96170.53;10393369;28;20037;-30
2022/12/22 08:32:48;;;;;;;7.82;2.00;;;;;;;16.74;58.63;96163.81;10393123;28;20060;-29
2022/12/22 08:37:50;;;;;;;11.20;2.75;;;;;;;16.76;58.02;96177.28;10381288;28;20064;-29
2022/12/22 08:42:57;;;;;;;6.53;2.65;;;;;;;16.75;58.82;96180.66;10388270;28;20052;-29
2022/12/22 08:47:58;;;;;;;4.13;1.83;;;;;;;16.72;58.03;96180.66;10384379;28;20033;-29
2022/12/22 08:53:02;;;;;;;9.43;2.17;;;;;;;16.74;58.84;96176.44;10392011;28;20393;-31
2022/12/22 08:58:03;;;;;;;5.53;2.20;;;;;;;16.77;59.09;96203.41;10381911;28;20075;-30
2022/12/22 09:03:03;;;;;;;4.25;1.95;;;;;;;16.74;59.20;96199.19;10388859;28;20447;-28
2022/12/22 09:08:06;;;;;;;8.60;1.93;;;;;;;16.71;59.86;96204.22;10384036;28;20029;-30
2022/12/22 09:13:07;;;;;;;4.93;1.75;;;;;;;16.70;59.41;96212.66;10378450;28;20036;-29
2022/12/22 09:18:07;;;;;;;5.60;2.33;;;;;;;16.72;59.54;96220.25;10397348;28;20039;-30
2022/12/22 09:23:07;;;;;;;4.07;1.67;;;;;;;16.75;58.56;96231.19;10393454;28;20037;-28
2022/12/22 09:28:07;;;;;;;6.87;1.63;;;;;;;16.75;58.70;96262.34;10402745;28;20035;-29
2022/12/22 09:33:08;;;;;;;4.87;1.40;;;;;;;16.77;58.63;96269.94;10397300;28;20025;-29
2022/12/22 09:38:08;;;;;;;3.37;1.50;;;;;;;16.77;58.34;96269.94;10400381;28;20031;-30
2022/12/22 09:43:15;;;;;;;6.32;1.60;;;;;;;16.75;58.45;96277.53;10398635;28;20072;-30
2022/12/22 09:48:15;;;;;;;;;;;;;;;16.75;58.44;96267.41;10396951;28;20040;-29
2022/12/22 09:53:21;;;;;;;3.97;1.60;;;;;;;16.75;58.89;96277.53;10395494;28;20426;-29
2022/12/22 09:58:28;;;;;;;4.50;1.73;;;;;;;16.77;58.81;96284.28;10399226;28;20051;-29
2022/12/22 10:03:32;;;;;;;;;;;;;;;16.78;58.75;96261.53;10401466;28;20627;-31
2022/12/22 10:08:35;;;;;;;4.45;1.50;;;;;;;16.75;58.58;96266.59;10398443;28;19925;-29
2022/12/22 10:13:35;;;;;;;4.65;1.70;;;;;;;16.77;58.07;96284.28;10389654;28;20036;-28
2022/12/22 10:18:36;;;;;;;3.67;1.30;;;;;;;16.78;58.42;96282.59;10400116;28;20028;-28
2022/12/22 10:23:40;;;;;;;8.57;2.23;;;;;;;16.79;57.94;96288.47;10393955;28;20144;-28
2022/12/22 10:28:45;;;;;;;3.25;1.67;;;;;;;16.78;58.61;96299.44;10391251;28;20489;-29
2022/12/22 10:33:48;;;;;;;4.13;1.50;;;;;;;16.75;58.80;96291.88;10390553;28;20040;-29
2022/12/22 10:39:01;;;;;;;3.78;1.60;;;;;;;16.73;59.24;96292.69;10388436;28;20709;-29
2022/12/22 10:44:07;;;;;;;2.92;1.33;;;;;;;16.77;58.69;96283.44;10381871;28;20495;-29
2022/12/22 10:49:26;;;;;;;3.60;1.45;;;;;;;16.78;58.61;96300.28;10393729;28;20408;-29
2022/12/22 10:54:39;;;;;;;4.72;1.83;;;;;;;16.78;57.97;96286.81;10383555;28;20075;-29
2022/12/22 10:59:55;;;;;;;3.30;1.50;;;;;;;16.81;57.56;96297.75;10392068;28;20032;-29
2022/12/22 11:05:10;;;;;;;6.75;2.50;;;;;;;16.81;58.57;96312.09;10387273;28;20531;-29
2022/12/22 11:10:13;;;;;;;6.95;2.25;;;;;;;16.80;58.33;96311.25;10413908;28;20496;-29
2022/12/22 11:15:26;;;;;;;4.97;2.90;;;;;;;16.77;58.53;96287.66;10430199;28;20179;-29
2022/12/22 11:20:41;;;;;;;7.47;4.22;;;;;;;16.78;58.60;96287.66;10442041;28;20555;-29
2022/12/22 11:25:51;;;;;;;8.70;4.57;;;;;;;16.77;58.67;96290.19;10429890;28;20061;-28
2022/12/22 11:31:09;;;;;;;9.20;5.20;;;;;;;16.80;58.01;96275.84;10437505;28;20119;-29
2022/12/22 11:36:47;;;;;;;12.57;5.65;;;;;;;16.82;58.03;96283.44;10444464;28;20033;-29
2022/12/22 11:42:15;;;;;;;9.10;4.72;;;;;;;16.74;58.23;96272.50;10426812;28;20065;-30
2022/12/22 11:47:26;;;;;;;9.75;5.40;;;;;;;16.80;58.30;96296.06;10439291;28;20071;-29
2022/12/22 11:52:43;;;;;;;16.77;5.60;;;;;;;16.77;58.62;96326.41;10427428;28;20449;-29
2022/12/22 11:58:07;;;;;;;13.30;5.85;;;;;;;16.80;57.56;96311.25;10425104;28;20036;-29
2022/12/22 12:03:39;;;;;;;14.15;5.20;;;;;;;16.83;56.12;96300.28;10441792;28;20063;-29
2022/12/22 12:09:04;;;;;;;8.82;3.90;;;;;;;16.86;53.94;96287.63;10438817;28;20029;-28
2022/12/22 12:14:30;;;;;;;12.63;5.07;;;;;;;16.91;53.96;96291.03;10438194;28;20078;-30
2022/12/22 12:20:00;;;;;;;7.78;4.93;;;;;;;16.87;54.71;96276.69;10438145;28;20032;-30
2022/12/22 12:25:10;;;;;;;8.82;4.88;;;;;;;16.87;54.03;96280.06;10442415;28;20086;-29
2022/12/22 12:30:16;;;;;;;8.10;4.43;;;;;;;16.87;52.97;96285.13;10436224;28;20038;-29
2022/12/22 12:35:34;;;;;;;10.63;5.03;;;;;;;16.88;54.19;96278.34;10440814;28;20194;-29
2022/12/22 12:40:54;;;;;;;6.10;4.47;;;;;;;16.89;53.68;96290.19;10436834;28;20067;-29
2022/12/22 12:45:54;;;;;;;9.43;5.43;;;;;;;16.88;53.40;96304.50;10435555;28;20093;-29
2022/12/22 12:50:56;;;;;;;8.00;4.07;;;;;;;16.89;54.04;96295.25;10442920;28;20137;-30
2022/12/22 12:56:03;;;;;;;8.43;5.13;;;;;;;16.90;53.62;96307.03;10444825;28;20041;-29
2022/12/22 13:01:26;;;;;;;6.50;4.20;;;;;;;16.90;54.02;96307.88;10447974;28;20100;-29
2022/12/22 13:06:44;;;;;;;8.85;5.28;;;;;;;16.90;54.08;96328.09;10435428;28;20029;-29
2022/12/22 13:11:45;;;;;;;7.95;4.18;;;;;;;16.87;53.43;96309.53;10447678;28;20033;-29
2022/12/22 13:16:45;;;;;;;9.52;4.68;;;;;;;16.86;55.24;96307.88;10442923;28;20032;-29
2022/12/22 13:21:46;;;;;;;8.93;5.23;;;;;;;16.83;55.35;96315.47;10427742;28;20048;-29
2022/12/22 13:26:50;;;;;;;8.98;5.60;;;;;;;16.86;53.52;96306.19;10428626;28;20048;-29
2022/12/22 13:31:56;;;;;;;7.30;5.00;;;;;;;16.81;53.12;96312.09;10439132;28;20075;-29
2022/12/22 13:37:01;;;;;;;10.70;5.60;;;;;;;16.90;52.74;96312.09;10445791;28;20036;-29
2022/12/22 13:42:05;;;;;;;9.20;4.75;;;;;;;16.78;53.04;96296.91;10439316;28;20570;-29
2022/12/22 13:47:13;;;;;;;6.43;4.80;;;;;;;16.86;53.03;96307.88;10448530;28;20033;-29
2022/12/22 13:52:16;;;;;;;9.15;4.07;;;;;;;16.92;52.95;96317.97;10447999;28;20033;-29
2022/12/22 13:57:20;;;;;;;7.15;4.65;;;;;;;16.93;52.95;96301.97;10437739;28;20035;-30
2022/12/22 14:02:21;;;;;;;7.82;4.45;;;;;;;16.94;52.27;96318.81;10451576;28;20095;-29
2022/12/22 14:07:21;;;;;;;6.17;3.90;;;;;;;16.94;53.33;96319.69;10442274;28;20033;-29
2022/12/22 14:12:24;;;;;;;6.30;3.97;;;;;;;16.91;53.15;96318.84;10438787;28;20782;-29
2022/12/22 14:17:28;;;;;;;6.70;4.38;;;;;;;16.92;51.96;96323.88;10438299;28;20037;-30
2022/12/22 14:22:36;;;;;;;8.43;4.07;;;;;;;16.94;53.48;96318.81;10430511;28;20867;-30
2022/12/22 14:27:47;;;;;;;9.45;3.60;;;;;;;16.97;52.21;96304.50;10423863;28;20496;-30
2022/12/22 14:32:56;;;;;;;12.80;6.03;;;;;;;16.82;58.31;96280.91;10440385;28;20517;-28
2022/12/22 14:38:19;;;;;;;10.80;6.65;;;;;;;16.82;58.43;96285.97;10430599;28;20465;-29
2022/12/22 14:43:19;;;;;;;12.40;5.47;;;;;;;16.80;57.72;96290.16;10424588;28;20033;-29
2022/12/22 14:48:31;;;;;;;10.68;5.32;;;;;;;16.79;57.18;96280.91;10421037;28;20033;-29
2022/12/22 14:53:46;;;;;;;13.63;6.18;;;;;;;16.62;57.16;96257.31;10430824;28;20037;-28
2022/12/22 14:58:47;;;;;;;15.70;7.47;;;;;;;16.78;56.67;96286.81;10430955;28;20673;-28
2022/12/22 15:04:18;;;;;;;8.57;4.97;;;;;;;16.82;55.52;96288.50;10448100;28;20040;-29
2022/12/22 15:09:18;;;;;;;11.27;6.25;;;;;;;16.81;57.20;96286.81;10440137;28;20044;-29
2022/12/22 15:14:22;;;;;;;11.07;6.07;;;;;;;16.75;56.04;96280.06;10432724;28;20517;-29
2022/12/22 15:19:27;;;;;;;12.02;5.63;;;;;;;16.82;56.97;96288.50;10440345;28;20044;-29
2022/12/22 15:24:28;;;;;;;14.50;5.25;;;;;;;16.84;56.65;96284.28;10445246;28;20578;-29
2022/12/22 15:29:28;;;;;;;16.40;6.97;;;;;;;16.82;57.41;96278.38;10435488;28;20413;-31
2022/12/22 15:34:30;;;;;;;8.63;5.17;;;;;;;16.82;56.60;96273.34;10437336;28;20033;-30
2022/12/22 15:39:31;;;;;;;13.45;5.68;;;;;;;16.85;57.09;96283.44;10430708;28;20071;-30
2022/12/22 15:44:31;;;;;;;9.97;6.13;;;;;;;16.80;57.57;96264.88;10425157;28;20114;-32
2022/12/22 15:49:31;;;;;;;8.63;5.03;;;;;;;16.81;58.03;96264.91;10426577;28;20505;-31
2022/12/22 15:54:32;;;;;;;9.30;5.40;;;;;;;16.78;59.03;96256.47;10423785;28;20083;-28
2022/12/22 15:59:32;;;;;;;9.95;5.07;;;;;;;16.79;57.17;96255.63;10427827;28;20736;-28
2022/12/22 16:04:33;;;;;;;9.67;5.53;;;;;;;16.76;58.41;96248.06;10416900;28;20029;-28
2022/12/22 16:09:39;;;;;;;13.00;6.70;;;;;;;16.70;58.78;96245.53;10426989;28;20519;-28
2022/12/22 16:14:42;;;;;;;11.73;7.03;;;;;;;16.79;58.98;96253.94;10437801;28;20167;-29
2022/12/22 16:19:44;;;;;;;15.73;8.18;;;;;;;16.80;59.73;96245.53;10428828;28;20072;-28
2022/12/22 16:24:47;;;;;;;16.48;8.15;;;;;;;16.83;59.07;96257.31;10405477;28;20032;-28
2022/12/22 16:29:52;;;;;;;14.02;7.82;;;;;;;16.82;59.32;96253.94;10401894;28;20275;-31
2022/12/22 16:34:56;;;;;;;15.23;7.93;;;;;;;16.81;59.65;96256.47;10404047;28;20032;-28
2022/12/22 16:39:56;;;;;;;11.25;7.03;;;;;;;16.82;59.60;96263.22;10412064;28;20078;-28
2022/12/22 16:44:58;;;;;;;12.83;7.27;;;;;;;16.84;59.11;96266.59;10422406;28;20033;-28
2022/12/22 16:50:02;;;;;;;12.68;7.20;;;;;;;16.80;59.35;96242.13;10444785;28;20060;-28
2022/12/22 16:55:20;;;;;;;13.65;5.53;;;;;;;16.83;56.44;96244.69;10452382;28;20508;-28
2022/12/22 17:00:23;;;;;;;11.27;6.78;;;;;;;16.82;58.87;96250.59;10441489;28;20060;-28
2022/12/22 17:05:36;;;;;;;11.10;5.85;;;;;;;16.83;58.86;96249.72;10433843;28;20041;-28
2022/12/22 17:10:36;;;;;;;12.40;6.25;;;;;;;16.86;59.04;96237.94;10434127;28;20417;-28
2022/12/22 17:15:36;;;;;;;12.00;7.70;;;;;;;16.87;60.53;96238.75;10431333;28;20044;-28
2022/12/22 17:20:37;;;;;;;17.27;9.60;;;;;;;16.87;59.95;96221.91;10433621;28;20041;-28
2022/12/22 17:25:38;;;;;;;19.53;11.33;;;;;;;16.89;59.72;96209.28;10443990;28;20738;-28
2022/12/22 17:30:39;;;;;;;14.60;9.55;;;;;;;16.90;57.72;96210.97;10436289;28;20036;-29
2022/12/22 17:35:39;;;;;;;17.38;9.50;;;;;;;16.89;58.41;96196.66;10428945;28;20064;-28
2022/12/22 17:40:41;;;;;;;15.93;10.70;;;;;;;16.70;57.91;96176.44;10430153;28;20037;-28
2022/12/22 17:45:44;;;;;;;19.08;10.02;;;;;;;16.88;58.52;96190.72;10430125;28;20065;-27
2022/12/22 17:50:48;;;;;;;16.35;10.07;;;;;;;16.90;58.61;96175.56;10430358;28;20132;-29
2022/12/22 17:55:50;;;;;;;13.50;8.77;;;;;;;16.91;57.91;96174.72;10436327;28;20443;-28
2022/12/22 18:00:50;;;;;;;15.68;9.07;;;;;;;16.92;57.17;96167.09;10427723;28;20044;-28
2022/12/22 18:05:51;;;;;;;11.00;8.87;;;;;;;16.92;57.21;96158.69;10438798;28;20049;-28
2022/12/22 18:10:51;;;;;;;16.27;12.02;;;;;;;16.77;58.59;96117.47;10436419;28;20295;-28
2022/12/22 18:15:53;;;;;;;20.70;13.30;;;;;;;16.90;59.14;96137.66;10443643;28;20033;-29
2022/12/22 18:20:54;;;;;;;22.60;16.20;;;;;;;16.89;61.28;96130.91;10437824;28;20060;-28
2022/12/22 18:25:55;;;;;;;21.75;15.07;;;;;;;16.91;61.77;96131.75;10446385;28;20166;-28
2022/12/22 18:30:55;;;;;;;21.77;14.63;;;;;;;16.96;61.98;96145.19;10445264;28;20037;-28
2022/12/22 18:35:57;;;;;;;19.60;14.93;;;;;;;16.93;62.14;96145.22;10434699;28;20033;-28
2022/12/22 18:40:58;;;;;;;19.92;13.10;;;;;;;16.94;60.13;96126.66;10437280;28;20103;-28
2022/12/22 18:45:58;;;;;;;20.08;12.40;;;;;;;16.95;59.59;96125.81;10439313;28;20112;-28
2022/12/22 18:50:58;;;;;;;20.37;12.53;;;;;;;16.94;57.73;96137.63;10435434;28;20037;-28
2022/12/22 18:55:59;;;;;;;18.03;12.00;;;;;;;16.92;58.18;96138.47;10435135;28;20037;-28
2022/12/22 19:00:59;;;;;;;16.80;12.23;;;;;;;16.95;60.22;96128.34;10434547;28;20025;-28
2022/12/22 19:05:59;;;;;;;15.73;11.97;;;;;;;16.94;60.65;96132.56;10420583;28;20037;-29
2022/12/22 19:11:05;;;;;;;16.13;11.43;;;;;;;16.91;59.90;96121.63;10424921;28;20033;-28
2022/12/22 19:16:06;;;;;;;17.10;10.85;;;;;;;16.97;59.04;96121.56;10449947;28;20171;-28
2022/12/22 19:21:11;;;;;;;15.68;10.88;;;;;;;17.01;58.56;96103.03;10433211;28;20029;-28
2022/12/22 19:26:21;;;;;;;14.98;11.02;;;;;;;17.04;58.43;96095.44;10436282;28;20037;-28
2022/12/22 19:31:25;;;;;;;19.00;10.98;;;;;;;17.02;59.18;96087.00;10436548;28;20048;-28
2022/12/22 19:36:28;;;;;;;15.77;10.48;;;;;;;17.04;59.07;96077.72;10431224;28;20036;-28
2022/12/22 19:41:50;;;;;;;19.98;11.98;;;;;;;17.06;59.79;96086.16;10424563;28;20037;-30
2022/12/22 19:46:53;;;;;;;15.88;10.52;;;;;;;17.04;61.42;96087.84;10432770;28;20052;-30
2022/12/22 19:51:54;;;;;;;14.98;10.70;;;;;;;17.03;61.49;96098.81;10434799;28;20042;-29
2022/12/22 19:56:55;;;;;;;13.52;9.73;;;;;;;17.03;59.84;96073.53;10426697;28;20033;-29
2022/12/22 20:01:56;;;;;;;14.55;9.55;;;;;;;17.04;59.97;96062.56;10433556;28;20455;-28
2022/12/22 20:06:56;;;;;;;19.65;10.00;;;;;;;16.91;59.41;96026.38;10436998;28;20087;-29
2022/12/22 20:11:56;;;;;;;16.43;9.93;;;;;;;17.06;60.11;96030.53;10429147;28;20082;-29
2022/12/22 20:16:57;;;;;;;16.73;10.53;;;;;;;17.05;59.64;96001.88;10441141;28;20021;-29
2022/12/22 20:21:57;;;;;;;27.17;13.27;;;;;;;17.08;59.95;96003.53;10424650;28;20025;-29
2022/12/22 20:26:58;;;;;;;22.33;14.40;;;;;;;17.10;59.14;95999.31;10438993;28;20116;-29
2022/12/22 20:31:58;;;;;;;33.15;18.27;;;;;;;17.09;61.04;95993.41;10436408;28;20735;-29
2022/12/22 20:36:58;;;;;;;32.03;16.40;;;;;;;17.11;60.20;95975.69;10432387;28;20166;-29
2022/12/22 20:41:59;;;;;;;25.35;14.85;;;;;;;17.13;59.57;95961.34;10430843;28;20679;-29
2022/12/22 20:47:00;;;;;;;25.83;15.07;;;;;;;17.12;60.08;95954.59;10431766;28;20581;-29
2022/12/22 20:52:00;;;;;;;25.05;16.42;;;;;;;17.10;61.31;95951.25;10436733;28;20029;-30
2022/12/22 20:57:01;;;;;;;27.67;15.40;;;;;;;16.99;61.91;95933.63;10423685;28;20094;-28
2022/12/22 21:02:02;;;;;;;26.38;15.35;;;;;;;17.06;61.33;95924.31;10427441;28;20107;-29
2022/12/22 21:07:03;;;;;;;19.35;13.80;;;;;;;17.09;60.05;95909.13;10427501;28;20058;-29
2022/12/22 21:12:04;;;;;;;20.93;13.07;;;;;;;17.10;59.42;95900.69;10430656;28;20033;-27
2022/12/22 21:17:13;;;;;;;28.35;14.13;;;;;;;17.09;59.92;95896.47;10431542;28;20491;-29
2022/12/22 21:22:14;;;;;;;21.63;12.82;;;;;;;17.09;59.52;95889.72;10441325;28;20128;-29
2022/12/22 21:27:19;;;;;;;20.10;13.15;;;;;;;17.05;60.14;95882.16;10449424;28;20476;-29
2022/12/22 21:32:19;;;;;;;18.92;13.15;;;;;;;17.06;59.19;95881.34;10443543;28;20041;-29
2022/12/22 21:37:20;;;;;;;21.30;14.10;;;;;;;17.08;59.71;95882.97;10447360;28;20404;-29
2022/12/22 21:42:20;;;;;;;21.63;13.00;;;;;;;17.08;58.64;95847.56;10443710;28;20120;-30
2022/12/22 21:47:21;;;;;;;18.10;12.17;;;;;;;17.09;58.49;95838.31;10442315;28;20473;-29
2022/12/22 21:52:21;;;;;;;19.10;12.60;;;;;;;17.10;59.03;95862.75;10445051;28;20033;-29
2022/12/22 21:57:21;;;;;;;17.63;11.73;;;;;;;17.11;59.38;95851.78;10434094;28;20086;-29
2022/12/22 22:02:22;;;;;;;20.20;12.07;;;;;;;17.11;59.01;95847.56;10442011;28;20032;-28
2022/12/22 22:07:22;;;;;;;19.70;11.67;;;;;;;17.11;59.28;95842.50;10435039;28;20036;-29
2022/12/22 22:12:31;;;;;;;19.97;12.67;;;;;;;17.06;60.54;95833.28;10437460;28;20074;-29
2022/12/22 22:17:32;;;;;;;19.45;11.40;;;;;;;17.02;60.89;95842.59;10438728;28;20286;-29
2022/12/22 22:22:32;;;;;;;16.23;10.68;;;;;;;17.04;59.53;95830.78;10433836;28;20036;-29
2022/12/22 22:27:32;;;;;;;16.73;10.83;;;;;;;17.05;59.65;95836.66;10446515;28;20045;-29
2022/12/22 22:32:33;;;;;;;17.07;10.73;;;;;;;17.05;59.63;95827.38;10438459;28;20048;-29
2022/12/22 22:37:33;;;;;;;15.50;10.43;;;;;;;17.06;59.50;95840.88;10444738;28;20215;-29
2022/12/22 22:42:34;;;;;;;17.87;11.03;;;;;;;17.07;58.91;95840.03;10441206;28;20111;-29
2022/12/22 22:47:34;;;;;;;13.80;8.82;;;;;;;16.94;59.61;95808.94;10438265;28;20443;-28
2022/12/22 22:52:35;;;;;;;15.87;10.90;;;;;;;17.05;59.49;95811.38;10444389;28;20557;-29
2022/12/22 22:57:36;;;;;;;18.50;11.30;;;;;;;17.07;59.01;95834.97;10437262;28;20039;-29
2022/12/22 23:02:36;;;;;;;12.90;9.73;;;;;;;17.08;59.32;95837.47;10440423;28;20400;-29
2022/12/22 23:07:37;;;;;;;16.02;10.60;;;;;;;17.09;58.98;95834.06;10444007;28;20033;-29
2022/12/22 23:12:37;;;;;;;13.00;9.87;;;;;;;17.10;58.72;95840.84;10431543;28;20037;-29
2022/12/22 23:17:37;;;;;;;15.57;10.53;;;;;;;17.02;58.96;95822.38;10443102;28;20025;-30
2022/12/22 23:22:38;;;;;;;13.67;9.63;;;;;;;17.09;59.19;95849.25;10432840;28;20451;-29
2022/12/22 23:27:38;;;;;;;14.67;9.57;;;;;;;17.09;60.43;95861.06;10445779;28;20043;-29
2022/12/22 23:32:38;;;;;;;14.63;9.47;;;;;;;17.09;60.43;95823.16;10442852;28;20476;-30
2022/12/22 23:37:40;;;;;;;16.63;9.30;;;;;;;17.08;60.59;95859.41;10426649;28;20041;-29
2022/12/22 23:42:40;;;;;;;13.40;9.52;;;;;;;17.09;59.42;95845.91;10444889;28;20111;-28
2022/12/22 23:47:40;;;;;;;12.80;8.40;;;;;;;17.08;59.30;95864.47;10438125;28;20769;-29
2022/12/22 23:52:41;;;;;;;16.10;9.07;;;;;;;17.10;59.20;95860.22;10437268;28;20079;-28
2022/12/22 23:57:41;;;;;;;14.23;9.13;;;;;;;17.08;59.28;95847.56;10439050;28;20055;-29
